Terminal Aerodrome Forecast
Issued by NWS Sterling, VA

Current Version | Previous Version | Graphics & Text | Print | Product List | Glossary On
Versions: 1 2 3 4 5 6 7 8 9 10 11 12 13 14 15 16 17 18 19 20 21 22 23 24 25 26
632
FTUS41 KLWX 200852 AAA
TAFDCA
TAF AMD
KDCA 200852Z 2009/2106 21007KT P6SM SCT014 OVC250
     FM201100 22005KT P6SM OVC015
     FM201500 23006KT P6SM BKN040
     FM202200 19006KT P6SM BKN050=

USA.gov is the U.S. government's official web portal to all federal, state and local government web resources and services.